Time;durP1;ratioP1;P1;durP2;ratioP2;P2;SDS_P1;SDS_P2;PMS_P1;PMS_P2;Temp;Humidity;BMP_temperature;BMP_pressure;BME280_temperature;BME280_humidity;BME280_pressure;Samples;Min_cycle;Max_cycle;Signal;HPM_P1;HPM_P2
2021/12/27 00:00:53;;;;;;;7.30;5.67;;;6.90;88.10;;;;;;5051544;28;20184;-73
2021/12/27 00:03:20;;;;;;;10.00;5.57;;;6.90;88.30;;;;;;5052787;28;20183;-73
2021/12/27 00:05:46;;;;;;;10.27;6.13;;;7.00;88.00;;;;;;5052773;28;20214;-72
2021/12/27 00:08:11;;;;;;;8.13;6.20;;;7.00;88.00;;;;;;5052530;28;20906;-72
2021/12/27 00:10:37;;;;;;;6.20;4.30;;;6.90;88.10;;;;;;5046961;28;20191;-71
2021/12/27 00:13:04;;;;;;;8.10;5.07;;;7.00;87.80;;;;;;5052904;28;20300;-71
2021/12/27 00:15:31;;;;;;;8.83;5.50;;;7.00;87.80;;;;;;5047749;28;20200;-71
2021/12/27 00:17:57;;;;;;;6.53;4.67;;;7.00;87.80;;;;;;5056889;28;20187;-72
2021/12/27 00:20:23;;;;;;;7.20;5.27;;;7.10;87.50;;;;;;5050794;28;20250;-71
2021/12/27 00:22:50;;;;;;;6.73;4.97;;;7.10;87.40;;;;;;5049176;28;20181;-71
2021/12/27 00:25:16;;;;;;;8.80;4.70;;;7.20;87.10;;;;;;5054813;28;20301;-72
2021/12/27 00:27:43;;;;;;;9.27;4.90;;;7.20;86.90;;;;;;5050218;28;20186;-72
2021/12/27 00:30:10;;;;;;;8.20;4.63;;;7.20;86.80;;;;;;5052818;28;20266;-72
2021/12/27 00:32:37;;;;;;;14.37;5.27;;;7.20;86.80;;;;;;5053897;28;20594;-73
2021/12/27 00:35:07;;;;;;;7.57;5.33;;;7.20;86.80;;;;;;5047008;28;20270;-72
2021/12/27 00:37:34;;;;;;;11.00;4.87;;;7.20;86.80;;;;;;5056140;28;20228;-72
2021/12/27 00:40:00;;;;;;;5.17;4.70;;;7.20;86.80;;;;;;5044574;28;20226;-71
2021/12/27 00:42:25;;;;;;;4.70;4.20;;;7.20;86.80;;;;;;5051074;28;20188;-72
2021/12/27 00:44:51;;;;;;;7.67;4.00;;;7.20;86.90;;;;;;5050387;28;20297;-72
2021/12/27 00:47:16;;;;;;;7.40;5.00;;;7.30;86.90;;;;;;5049055;28;20246;-72
2021/12/27 00:49:42;;;;;;;10.80;5.10;;;7.10;87.40;;;;;;5052390;28;20191;-72
2021/12/27 00:52:08;;;;;;;10.77;5.30;;;7.10;87.30;;;;;;5050649;28;20179;-71
2021/12/27 00:54:34;;;;;;;9.87;6.33;;;7.10;87.40;;;;;;5053936;28;20186;-73
2021/12/27 00:57:00;;;;;;;5.97;5.47;;;7.00;87.90;;;;;;5052208;28;20236;-73
2021/12/27 00:59:26;;;;;;;8.57;5.53;;;7.00;87.90;;;;;;5054347;28;20232;-73
2021/12/27 01:01:52;;;;;;;8.37;5.83;;;6.90;88.00;;;;;;5048244;28;20204;-73
2021/12/27 01:04:18;;;;;;;6.83;6.13;;;6.90;88.00;;;;;;5047942;28;20613;-72
2021/12/27 01:06:43;;;;;;;10.33;5.63;;;6.90;88.20;;;;;;5050714;28;20266;-72
2021/12/27 01:09:14;;;;;;;6.50;5.43;;;6.80;88.70;;;;;;5052475;28;20664;-73
2021/12/27 01:11:57;;;;;;;10.90;5.73;;;6.90;88.50;;;;;;5050928;28;20228;-73
2021/12/27 01:14:41;;;;;;;7.70;4.83;;;6.90;88.50;;;;;;5044630;28;20183;-72
2021/12/27 01:17:07;;;;;;;8.50;5.50;;;6.90;88.30;;;;;;5048276;28;20237;-72
2021/12/27 01:19:33;;;;;;;9.93;6.03;;;7.00;88.20;;;;;;5055351;28;20213;-71
2021/12/27 01:21:59;;;;;;;6.73;5.60;;;7.00;88.20;;;;;;5050338;28;20192;-71
2021/12/27 01:24:25;;;;;;;11.97;6.10;;;7.00;88.30;;;;;;5051419;28;20857;-73
2021/12/27 01:26:51;;;;;;;11.87;6.53;;;7.00;88.40;;;;;;5046011;28;20181;-72
2021/12/27 01:29:16;;;;;;;11.20;6.03;;;6.90;88.60;;;;;;5046638;28;20191;-72
2021/12/27 01:31:42;;;;;;;6.50;5.73;;;7.00;88.50;;;;;;5045929;28;20270;-72
2021/12/27 01:34:09;;;;;;;12.33;5.77;;;7.00;88.30;;;;;;5052397;28;20653;-72
2021/12/27 01:36:35;;;;;;;9.37;5.40;;;7.10;88.30;;;;;;5053595;28;20186;-72
2021/12/27 01:39:04;;;;;;;7.50;5.37;;;7.10;88.20;;;;;;5050278;28;20203;-71
2021/12/27 01:41:30;;;;;;;6.67;5.47;;;7.20;87.80;;;;;;5047936;28;20214;-72
2021/12/27 01:43:56;;;;;;;13.20;5.87;;;7.20;87.70;;;;;;5045072;28;20192;-73
2021/12/27 01:46:24;;;;;;;10.03;6.43;;;7.20;87.70;;;;;;5049491;28;20238;-73
2021/12/27 01:48:57;;;;;;;7.23;6.00;;;7.30;87.50;;;;;;5053390;28;20248;-74
2021/12/27 01:51:29;;;;;;;5.73;4.90;;;7.30;87.50;;;;;;5054960;28;20191;-73
2021/12/27 01:53:57;;;;;;;11.00;5.60;;;7.30;87.50;;;;;;5044531;28;20193;-73
2021/12/27 01:56:24;;;;;;;9.40;5.87;;;7.30;87.40;;;;;;5054513;28;20591;-72
2021/12/27 01:58:52;;;;;;;11.33;6.63;;;7.30;87.40;;;;;;5049341;28;21189;-73
2021/12/27 02:01:18;;;;;;;6.03;5.33;;;7.30;87.50;;;;;;5051077;28;20261;-73
2021/12/27 02:03:44;;;;;;;8.50;6.33;;;7.30;87.60;;;;;;5046932;28;20188;-73
2021/12/27 02:06:12;;;;;;;15.10;7.67;;;7.20;87.80;;;;;;5050011;28;20176;-72
2021/12/27 02:08:41;;;;;;;11.10;6.93;;;7.10;87.60;;;;;;5051093;28;20196;-73
2021/12/27 02:11:08;;;;;;;11.70;6.57;;;7.10;87.70;;;;;;5052067;28;20217;-73
2021/12/27 02:13:41;;;;;;;9.83;6.30;;;7.10;87.70;;;;;;5052768;28;20184;-73
2021/12/27 02:16:07;;;;;;;10.67;6.30;;;7.10;87.80;;;;;;5052027;28;20362;-72
2021/12/27 02:18:33;;;;;;;11.50;6.20;;;7.10;87.80;;;;;;5047877;28;20262;-72
2021/12/27 02:20:58;;;;;;;10.97;7.00;;;7.20;87.80;;;;;;5041252;28;20183;-72
2021/12/27 02:23:24;;;;;;;12.23;6.47;;;7.20;88.20;;;;;;5040412;28;20291;-73
2021/12/27 02:25:51;;;;;;;12.63;6.93;;;7.10;88.30;;;;;;5049273;28;20179;-71
2021/12/27 02:28:18;;;;;;;9.60;7.17;;;7.10;88.40;;;;;;5045934;28;20209;-73
2021/12/27 02:30:46;;;;;;;8.73;6.80;;;7.10;88.30;;;;;;5050976;28;20183;-72
2021/12/27 02:33:12;;;;;;;11.87;6.77;;;7.20;88.30;;;;;;5050960;28;20194;-72
2021/12/27 02:35:45;;;;;;;11.13;6.70;;;7.10;88.30;;;;;;5055528;28;20215;-73
2021/12/27 02:38:20;;;;;;;9.43;6.10;;;7.00;88.60;;;;;;5050490;28;20533;-72
2021/12/27 02:40:47;;;;;;;15.50;7.37;;;7.00;88.90;;;;;;5054017;28;20190;-72
2021/12/27 02:43:16;;;;;;;12.57;7.67;;;7.00;88.90;;;;;;5047514;28;20231;-72
2021/12/27 02:45:46;;;;;;;10.80;7.53;;;7.00;89.00;;;;;;5054106;28;20267;-71
2021/12/27 02:48:13;;;;;;;9.43;6.07;;;7.00;89.00;;;;;;5047304;28;20274;-73
2021/12/27 02:50:41;;;;;;;10.00;6.53;;;7.10;88.90;;;;;;5050469;28;20307;-73
2021/12/27 02:53:08;;;;;;;14.97;7.83;;;7.10;88.90;;;;;;5053243;28;20184;-72
2021/12/27 02:55:34;;;;;;;10.63;6.83;;;7.10;89.20;;;;;;5050870;28;20183;-72
2021/12/27 02:58:00;;;;;;;14.73;7.70;;;7.00;89.30;;;;;;5045792;28;20183;-72
2021/12/27 03:00:28;;;;;;;14.20;8.27;;;7.00;89.10;;;;;;5048476;28;20854;-72
2021/12/27 03:02:56;;;;;;;16.33;6.47;;;7.00;89.10;;;;;;5050370;28;20175;-72
2021/12/27 03:05:24;;;;;;;9.80;6.53;;;7.00;89.10;;;;;;5054420;28;20179;-72
2021/12/27 03:07:51;;;;;;;15.40;8.13;;;7.00;89.00;;;;;;5050531;28;20195;-73
2021/12/27 03:10:20;;;;;;;9.60;6.60;;;7.00;89.50;;;;;;5052930;28;20911;-72
2021/12/27 03:12:47;;;;;;;9.93;7.23;;;6.90;89.50;;;;;;5051334;28;20232;-72
2021/12/27 03:15:14;;;;;;;8.40;6.30;;;6.90;89.50;;;;;;5049412;28;20245;-71
2021/12/27 03:17:43;;;;;;;10.43;7.67;;;6.90;89.60;;;;;;5056119;28;20186;-72
2021/12/27 03:20:12;;;;;;;13.33;7.30;;;6.90;89.60;;;;;;5052088;28;20316;-73
2021/12/27 03:22:38;;;;;;;9.40;6.17;;;6.90;89.70;;;;;;5051348;28;20187;-72
2021/12/27 03:25:05;;;;;;;10.60;7.13;;;6.90;89.80;;;;;;5045941;28;20184;-72
2021/12/27 03:27:31;;;;;;;14.77;7.07;;;6.90;90.20;;;;;;5044238;28;20175;-72
2021/12/27 03:29:57;;;;;;;10.83;6.93;;;6.80;90.10;;;;;;5044719;28;20199;-72
2021/12/27 03:32:23;;;;;;;13.10;7.00;;;6.80;90.40;;;;;;5051119;28;20183;-72
2021/12/27 03:35:03;;;;;;;9.87;7.10;;;6.80;90.40;;;;;;5056531;28;20205;-71
2021/12/27 03:37:30;;;;;;;12.30;6.60;;;6.80;90.20;;;;;;5050223;28;20171;-71
2021/12/27 03:39:56;;;;;;;11.93;7.07;;;6.90;90.00;;;;;;5056632;28;20225;-72
2021/12/27 03:42:22;;;;;;;14.77;6.60;;;6.90;89.70;;;;;;5050160;28;20183;-72
2021/12/27 03:44:48;;;;;;;10.93;7.20;;;7.00;89.70;;;;;;5047818;28;20182;-74
2021/12/27 03:47:14;;;;;;;10.60;6.97;;;7.00;89.80;;;;;;5052666;28;20250;-73
2021/12/27 03:49:40;;;;;;;18.43;7.73;;;7.00;89.50;;;;;;5054554;28;20198;-73
2021/12/27 03:52:06;;;;;;;7.93;6.37;;;7.00;89.50;;;;;;5050505;28;20176;-72
2021/12/27 03:54:32;;;;;;;10.47;6.93;;;7.00;89.50;;;;;;5052689;28;20184;-73
2021/12/27 03:56:57;;;;;;;11.47;7.17;;;7.00;89.50;;;;;;5048217;28;20180;-72
2021/12/27 03:59:37;;;;;;;5.70;4.90;;;7.00;89.50;;;;;;5049775;28;20269;-73
2021/12/27 04:02:03;;;;;;;9.53;6.47;;;7.00;89.50;;;;;;5052873;28;20186;-72
2021/12/27 04:04:30;;;;;;;10.13;6.27;;;6.90;89.70;;;;;;5053126;28;20560;-73
2021/12/27 04:06:55;;;;;;;7.00;4.83;;;6.90;89.60;;;;;;5053147;28;20708;-73
2021/12/27 04:09:21;;;;;;;12.03;7.40;;;6.90;89.60;;;;;;5051688;28;20213;-72
2021/12/27 04:11:47;;;;;;;13.43;6.80;;;6.90;89.90;;;;;;5054237;28;20673;-71
2021/12/27 04:14:13;;;;;;;13.53;7.53;;;6.80;90.40;;;;;;5049414;28;20693;-72
2021/12/27 04:16:39;;;;;;;8.73;6.83;;;6.80;90.40;;;;;;5051189;28;20190;-72
2021/12/27 04:19:04;;;;;;;9.83;6.53;;;6.80;90.40;;;;;;5050339;28;20719;-72
2021/12/27 04:21:31;;;;;;;13.67;7.20;;;6.80;90.50;;;;;;5049600;28;20194;-71
2021/12/27 04:23:57;;;;;;;8.67;5.77;;;6.80;90.50;;;;;;5054025;28;20186;-72
2021/12/27 04:26:23;;;;;;;9.43;6.10;;;6.80;90.50;;;;;;5048076;28;20184;-72
2021/12/27 04:28:50;;;;;;;8.60;6.17;;;6.80;90.50;;;;;;5050791;28;20187;-71
2021/12/27 04:31:16;;;;;;;7.90;6.40;;;6.90;90.40;;;;;;5051028;28;20180;-72
2021/12/27 04:33:43;;;;;;;9.53;6.97;;;6.90;90.40;;;;;;5051789;28;20936;-72
2021/12/27 04:36:09;;;;;;;7.27;6.07;;;6.90;90.20;;;;;;5048598;28;20541;-71
2021/12/27 04:38:36;;;;;;;12.17;6.87;;;6.90;90.20;;;;;;5048585;28;20222;-71
2021/12/27 04:41:04;;;;;;;11.00;6.93;;;6.90;90.40;;;;;;5046109;28;20176;-71
2021/12/27 04:43:30;;;;;;;9.77;6.20;;;6.90;90.50;;;;;;5046753;28;20183;-72
2021/12/27 04:45:56;;;;;;;10.80;7.40;;;7.00;90.40;;;;;;5053866;28;20182;-73
2021/12/27 04:48:23;;;;;;;8.93;6.17;;;6.90;90.20;;;;;;5046909;28;20190;-72
2021/12/27 04:50:49;;;;;;;15.33;7.90;;;6.90;90.20;;;;;;5053470;28;20183;-73
2021/12/27 04:53:15;;;;;;;12.50;7.77;;;6.90;90.30;;;;;;5052277;28;20187;-72
2021/12/27 04:55:41;;;;;;;12.27;7.03;;;6.90;90.50;;;;;;5049800;28;20569;-72
2021/12/27 04:58:10;;;;;;;7.20;6.33;;;6.90;90.50;;;;;;5049332;28;20180;-72
2021/12/27 05:00:37;;;;;;;11.10;6.53;;;7.00;90.40;;;;;;5047421;28;20765;-71
2021/12/27 05:03:03;;;;;;;7.73;5.70;;;7.00;90.50;;;;;;5046812;28;21077;-73
2021/12/27 05:05:31;;;;;;;9.77;6.10;;;7.00;90.50;;;;;;5055705;28;20209;-71
2021/12/27 05:07:57;;;;;;;7.60;6.17;;;7.10;90.30;;;;;;5046169;28;20275;-72
2021/12/27 05:10:25;;;;;;;7.27;6.13;;;7.10;90.20;;;;;;5043498;28;20187;-73
2021/12/27 05:12:50;;;;;;;10.20;6.90;;;7.00;90.00;;;;;;5052705;28;20189;-72
2021/12/27 05:15:16;;;;;;;9.07;5.40;;;7.00;90.30;;;;;;5051127;28;20183;-73
2021/12/27 05:17:42;;;;;;;8.27;5.60;;;7.00;90.20;;;;;;5055391;28;20184;-73
2021/12/27 05:20:09;;;;;;;9.67;5.77;;;7.00;90.40;;;;;;5048739;28;20208;-71
2021/12/27 05:22:35;;;;;;;7.60;5.27;;;7.00;90.20;;;;;;5046606;28;20186;-72
2021/12/27 05:25:03;;;;;;;8.27;5.10;;;7.00;90.20;;;;;;5046320;28;20180;-70
2021/12/27 05:27:29;;;;;;;6.33;5.53;;;7.10;90.00;;;;;;5052950;28;20190;-74
2021/12/27 05:29:54;;;;;;;10.60;6.57;;;7.10;90.00;;;;;;5053229;28;20183;-72
2021/12/27 05:32:20;;;;;;;11.83;6.63;;;7.10;90.00;;;;;;5045383;28;20195;-72
2021/12/27 05:34:46;;;;;;;6.30;5.20;;;7.10;90.00;;;;;;5053200;28;20180;-72
2021/12/27 05:37:11;;;;;;;6.73;5.27;;;7.10;89.90;;;;;;5056583;28;20183;-71
2021/12/27 05:39:37;;;;;;;9.73;5.57;;;7.10;89.90;;;;;;5043097;28;20605;-72
2021/12/27 05:42:03;;;;;;;11.10;6.77;;;7.20;89.80;;;;;;5054031;28;20244;-72
2021/12/27 05:44:29;;;;;;;9.47;6.13;;;7.10;89.80;;;;;;5048157;28;20966;-72
2021/12/27 05:46:55;;;;;;;12.40;7.40;;;7.10;89.80;;;;;;5050850;28;20187;-72
2021/12/27 05:49:22;;;;;;;10.43;6.73;;;7.10;90.00;;;;;;5049982;28;20187;-71
2021/12/27 05:51:48;;;;;;;9.57;5.80;;;7.00;90.40;;;;;;5050344;28;20183;-72
2021/12/27 05:54:14;;;;;;;10.50;5.33;;;7.10;90.30;;;;;;5046814;28;20190;-72
2021/12/27 05:56:41;;;;;;;10.77;6.40;;;7.10;90.00;;;;;;5054266;28;20262;-72
2021/12/27 05:59:07;;;;;;;8.47;5.83;;;7.10;90.20;;;;;;5049529;28;20218;-73
2021/12/27 06:01:32;;;;;;;10.23;6.13;;;7.00;90.20;;;;;;5051060;28;20180;-72
2021/12/27 06:03:59;;;;;;;8.13;6.07;;;7.00;90.30;;;;;;5053992;28;20179;-71
2021/12/27 06:06:26;;;;;;;7.17;6.17;;;7.00;90.30;;;;;;5050067;28;20210;-73
2021/12/27 06:08:52;;;;;;;7.53;6.13;;;7.00;90.20;;;;;;5052613;28;20210;-72
2021/12/27 06:11:18;;;;;;;9.73;5.70;;;7.00;90.20;;;;;;5040166;28;20279;-72
2021/12/27 06:13:44;;;;;;;7.97;5.53;;;7.00;90.40;;;;;;5049219;28;20266;-72
2021/12/27 06:16:10;;;;;;;6.77;5.50;;;7.00;90.40;;;;;;5045503;28;20271;-72
2021/12/27 06:18:36;;;;;;;4.40;4.00;;;7.00;90.40;;;;;;5047143;28;20186;-73
2021/12/27 06:21:04;;;;;;;9.40;5.90;;;7.00;90.40;;;;;;5050377;28;20184;-72
2021/12/27 06:23:30;;;;;;;8.53;4.97;;;7.00;90.30;;;;;;5043358;28;20190;-72
2021/12/27 06:25:56;;;;;;;5.63;4.07;;;7.00;90.60;;;;;;5047565;28;20346;-73
2021/12/27 06:28:22;;;;;;;6.23;3.37;;;;;;;;;;5048065;28;20274;-73
2021/12/27 06:30:48;;;;;;;6.63;5.10;;;7.00;90.80;;;;;;5048423;28;20190;-73
2021/12/27 06:33:15;;;;;;;6.57;4.13;;;7.10;90.60;;;;;;5047088;28;20183;-73
2021/12/27 06:35:42;;;;;;;7.97;4.80;;;7.10;90.50;;;;;;5048119;28;20649;-74
2021/12/27 06:38:08;;;;;;;7.23;5.37;;;7.10;90.30;;;;;;5051126;28;20184;-73
2021/12/27 06:40:34;;;;;;;9.60;5.93;;;7.20;90.20;;;;;;5045775;28;20211;-72
2021/12/27 06:43:00;;;;;;;5.33;4.37;;;7.30;90.10;;;;;;5045866;28;20757;-73
2021/12/27 06:45:26;;;;;;;7.47;4.70;;;7.40;90.10;;;;;;5046738;28;20176;-73
2021/12/27 06:47:51;;;;;;;6.97;4.67;;;7.40;89.90;;;;;;5048382;28;20240;-73
2021/12/27 06:50:19;;;;;;;5.47;4.90;;;7.50;89.80;;;;;;5051309;28;20730;-72
2021/12/27 06:52:45;;;;;;;7.60;4.10;;;7.60;89.60;;;;;;5047187;28;20237;-72
2021/12/27 06:55:11;;;;;;;4.07;3.67;;;7.70;89.50;;;;;;5048873;28;20715;-72
2021/12/27 06:57:38;;;;;;;3.63;3.33;;;7.80;89.40;;;;;;5055361;28;20183;-72
2021/12/27 07:00:10;;;;;;;3.90;3.30;;;7.90;89.30;;;;;;5048300;28;20215;-72
2021/12/27 07:02:36;;;;;;;5.10;3.10;;;8.00;89.10;;;;;;5051197;28;20179;-71
2021/12/27 07:05:01;;;;;;;4.60;3.13;;;8.30;89.30;;;;;;5049254;28;20194;-74
2021/12/27 07:07:27;;;;;;;3.03;2.23;;;8.50;88.60;;;;;;5049911;28;20191;-72
2021/12/27 07:09:53;;;;;;;5.88;3.78;;;8.70;88.50;;;;;;5052274;28;20211;-73
2021/12/27 07:12:19;;;;;;;2.87;2.63;;;8.80;88.10;;;;;;5053106;28;20183;-73
2021/12/27 07:14:47;;;;;;;3.93;3.33;;;9.00;87.40;;;;;;5053872;28;20190;-72
2021/12/27 07:17:12;;;;;;;3.30;2.70;;;9.10;86.70;;;;;;5048762;28;20188;-73
2021/12/27 07:19:38;;;;;;;3.13;2.83;;;9.10;85.50;;;;;;5052249;28;20802;-74
2021/12/27 07:22:04;;;;;;;2.50;2.30;;;9.10;85.40;;;;;;5052876;28;20233;-73
2021/12/27 07:24:30;;;;;;;4.88;3.05;;;9.10;85.60;;;;;;5050826;28;21147;-73
2021/12/27 07:26:56;;;;;;;3.97;2.13;;;9.10;85.50;;;;;;5052985;28;20200;-72
2021/12/27 07:29:22;;;;;;;2.85;2.65;;;9.10;85.50;;;;;;5052795;28;20271;-72
2021/12/27 07:31:48;;;;;;;3.10;2.00;;;9.10;85.30;;;;;;5054371;28;20221;-72
2021/12/27 07:34:17;;;;;;;2.50;2.40;;;9.20;85.50;;;;;;5056396;28;20176;-73
2021/12/27 07:36:43;;;;;;;2.53;2.42;;;9.20;85.10;;;;;;5054637;28;20187;-73
2021/12/27 07:39:09;;;;;;;3.75;2.80;;;9.20;85.00;;;;;;5055119;28;20215;-72
2021/12/27 07:41:35;;;;;;;3.47;2.20;;;9.20;85.20;;;;;;5049376;28;20314;-73
2021/12/27 07:44:01;;;;;;;2.40;2.25;;;9.20;84.90;;;;;;5052973;28;21084;-73
2021/12/27 07:46:26;;;;;;;2.10;2.00;;;9.30;85.00;;;;;;5050304;28;20572;-72
2021/12/27 07:48:52;;;;;;;2.65;2.47;;;9.30;84.90;;;;;;5051291;28;20195;-73
2021/12/27 07:51:18;;;;;;;2.78;2.58;;;9.30;84.70;;;;;;5049957;28;20318;-73
2021/12/27 07:53:44;;;;;;;3.90;2.67;;;9.30;84.80;;;;;;5048645;28;20287;-72
2021/12/27 07:56:10;;;;;;;2.67;2.58;;;9.30;84.80;;;;;;5044847;28;20184;-76
2021/12/27 07:58:36;;;;;;;3.67;3.33;;;9.30;84.80;;;;;;5048432;28;20658;-72
2021/12/27 08:01:02;;;;;;;6.82;4.45;;;9.30;84.70;;;;;;5053949;28;20175;-72
2021/12/27 08:03:28;;;;;;;5.57;3.08;;;9.30;84.80;;;;;;5056319;28;20622;-73
2021/12/27 08:05:54;;;;;;;3.70;2.92;;;9.30;84.90;;;;;;5056916;28;20219;-72
2021/12/27 08:08:20;;;;;;;4.78;3.58;;;9.30;85.00;;;;;;5049235;28;20241;-72
2021/12/27 08:10:46;;;;;;;4.20;3.17;;;9.30;85.10;;;;;;5050876;28;20270;-72
2021/12/27 08:13:12;;;;;;;4.07;3.67;;;9.40;85.20;;;;;;5052488;28;20187;-73
2021/12/27 08:15:38;;;;;;;4.85;3.50;;;9.30;85.00;;;;;;5048398;28;20573;-72
2021/12/27 08:18:04;;;;;;;4.13;3.72;;;9.30;85.00;;;;;;5051105;28;20227;-72
2021/12/27 08:20:30;;;;;;;5.53;3.53;;;9.40;85.20;;;;;;5056095;28;20215;-72
2021/12/27 08:22:56;;;;;;;3.53;3.03;;;9.40;85.20;;;;;;5048814;28;20222;-71
2021/12/27 08:25:22;;;;;;;4.57;3.25;;;9.50;85.10;;;;;;5046939;28;20180;-72
2021/12/27 08:27:48;;;;;;;3.72;3.42;;;9.60;85.00;;;;;;5051828;28;20290;-71
2021/12/27 08:30:14;;;;;;;7.35;4.45;;;9.70;85.10;;;;;;5049813;28;20700;-71
2021/12/27 08:32:42;;;;;;;3.88;3.58;;;9.60;84.40;;;;;;5054842;28;20258;-74
2021/12/27 08:35:09;;;;;;;6.30;4.13;;;9.60;84.60;;;;;;5047831;28;20233;-73
2021/12/27 08:37:36;;;;;;;5.55;3.88;;;9.60;84.40;;;;;;5044186;28;20254;-73
2021/12/27 08:40:03;;;;;;;5.00;4.00;;;9.70;84.50;;;;;;5046565;28;20286;-74
2021/12/27 08:42:29;;;;;;;4.57;3.80;;;9.70;84.60;;;;;;5050646;28;20189;-75
2021/12/27 08:44:55;;;;;;;4.00;3.33;;;9.80;84.60;;;;;;5053022;28;20180;-72
2021/12/27 08:47:21;;;;;;;5.13;3.83;;;9.80;84.20;;;;;;5051076;28;20737;-72
2021/12/27 08:49:46;;;;;;;4.45;3.65;;;9.80;84.00;;;;;;5055533;28;20199;-74
2021/12/27 08:52:12;;;;;;;5.90;3.45;;;9.90;84.10;;;;;;5047159;28;20258;-72
2021/12/27 08:54:38;;;;;;;4.63;2.97;;;10.00;84.10;;;;;;5047260;28;20184;-72
2021/12/27 08:57:05;;;;;;;3.10;2.55;;;10.10;84.10;;;;;;5050363;28;20262;-73
2021/12/27 08:59:32;;;;;;;4.28;3.50;;;10.10;83.40;;;;;;5048692;28;20314;-73
2021/12/27 09:01:58;;;;;;;4.65;2.83;;;10.10;83.80;;;;;;5050845;28;20183;-73
2021/12/27 09:04:24;;;;;;;6.28;3.58;;;10.10;83.80;;;;;;5049418;28;20183;-73
2021/12/27 09:06:50;;;;;;;4.72;3.72;;;10.20;83.80;;;;;;5044823;28;20872;-73
2021/12/27 09:09:16;;;;;;;4.03;3.50;;;10.40;84.00;;;;;;5046841;28;20203;-74
2021/12/27 09:11:43;;;;;;;4.45;4.07;;;10.60;84.10;;;;;;5053428;28;20258;-73
2021/12/27 09:14:09;;;;;;;3.90;3.60;;;10.80;83.90;;;;;;5058328;28;20281;-73
2021/12/27 09:16:35;;;;;;;6.00;4.32;;;11.10;83.80;;;;;;5045829;28;20268;-74
2021/12/27 09:19:01;;;;;;;6.07;4.07;;;11.40;83.20;;;;;;5052361;28;20214;-75
2021/12/27 09:21:27;;;;;;;4.80;3.88;;;11.60;80.90;;;;;;5048459;28;20175;-73
2021/12/27 09:23:52;;;;;;;10.70;4.47;;;11.70;80.70;;;;;;5048694;28;20812;-73
2021/12/27 09:26:18;;;;;;;4.05;3.75;;;11.60;79.70;;;;;;5050652;28;20183;-74
2021/12/27 09:28:44;;;;;;;4.25;3.88;;;11.60;79.70;;;;;;5049678;28;20207;-74
2021/12/27 09:31:10;;;;;;;5.68;4.93;;;11.60;80.20;;;;;;5051252;28;20182;-75
2021/12/27 09:33:36;;;;;;;5.18;4.30;;;11.50;80.10;;;;;;5047759;28;20258;-74
2021/12/27 09:36:02;;;;;;;5.57;4.43;;;11.60;80.60;;;;;;5046535;28;20181;-74
2021/12/27 09:38:28;;;;;;;7.03;4.30;;;11.50;79.90;;;;;;5054088;28;20268;-74
2021/12/27 09:40:54;;;;;;;5.07;4.20;;;11.50;80.10;;;;;;5047003;28;20708;-74
2021/12/27 09:43:20;;;;;;;5.10;4.70;;;11.40;80.10;;;;;;5044423;28;20379;-74
2021/12/27 09:45:45;;;;;;;5.85;4.30;;;11.30;80.30;;;;;;5050242;28;20183;-74
2021/12/27 09:48:13;;;;;;;7.00;4.95;;;11.20;80.70;;;;;;5047246;28;20988;-74
2021/12/27 09:50:52;;;;;;;7.78;5.32;;;11.20;80.60;;;;;;5047049;28;21114;-74
2021/12/27 09:53:18;;;;;;;8.38;5.00;;;11.10;80.80;;;;;;5041770;28;20184;-75
2021/12/27 09:55:44;;;;;;;4.63;4.30;;;11.20;81.20;;;;;;5044922;28;20247;-74
2021/12/27 09:58:09;;;;;;;5.90;4.53;;;11.20;81.00;;;;;;5047091;28;20187;-74
2021/12/27 10:00:36;;;;;;;7.50;5.45;;;11.20;81.00;;;;;;5040511;28;20207;-74
2021/12/27 10:03:02;;;;;;;7.65;4.20;;;11.10;80.90;;;;;;5048915;28;20198;-74
2021/12/27 10:05:30;;;;;;;8.48;4.82;;;11.20;81.00;;;;;;5043450;28;20186;-74
2021/12/27 10:07:57;;;;;;;5.10;4.70;;;11.10;80.80;;;;;;5046205;28;20207;-74
2021/12/27 10:10:23;;;;;;;4.40;4.03;;;11.20;80.90;;;;;;5047515;28;20191;-74
2021/12/27 10:12:50;;;;;;;7.07;4.70;;;11.20;81.10;;;;;;5045877;28;20175;-74
2021/12/27 10:15:20;;;;;;;4.97;3.97;;;11.20;81.00;;;;;;5046309;28;20179;-72
2021/12/27 10:17:47;;;;;;;5.15;3.58;;;11.30;81.20;;;;;;5039652;28;20190;-74
2021/12/27 10:20:22;;;;;;;4.68;3.97;;;11.40;81.10;;;;;;5041934;28;20710;-74
2021/12/27 10:22:52;;;;;;;4.38;3.97;;;11.40;81.00;;;;;;5046235;28;20190;-73
2021/12/27 10:25:21;;;;;;;4.88;4.43;;;11.50;80.80;;;;;;5046779;28;20192;-72
2021/12/27 10:27:49;;;;;;;7.03;4.68;;;11.50;80.40;;;;;;5048835;28;20175;-72
2021/12/27 10:30:17;;;;;;;5.47;4.18;;;11.50;80.10;;;;;;5051914;28;20270;-73
2021/12/27 10:33:00;;;;;;;4.43;3.65;;;11.50;80.40;;;;;;5052963;28;20263;-74
2021/12/27 10:35:37;;;;;;;4.43;4.00;;;11.60;80.10;;;;;;5050980;28;20179;-72
2021/12/27 10:38:24;;;;;;;4.22;3.92;;;11.60;80.40;;;;;;5050229;28;20175;-73
2021/12/27 10:40:50;;;;;;;4.55;4.10;;;11.60;80.70;;;;;;5051993;28;20215;-74
2021/12/27 10:43:32;;;;;;;5.68;4.85;;;11.70;80.90;;;;;;5058396;28;20187;-74
2021/12/27 10:46:03;;;;;;;6.82;4.60;;;11.80;80.70;;;;;;5053132;28;20201;-74
2021/12/27 10:48:40;;;;;;;8.20;5.35;;;11.80;80.40;;;;;;5052435;28;20194;-73
2021/12/27 10:51:06;;;;;;;7.43;4.55;;;12.00;80.70;;;;;;5054463;28;20186;-74
2021/12/27 10:53:55;;;;;;;4.38;4.00;;;12.00;79.90;;;;;;5054120;28;20565;-74
2021/12/27 10:56:24;;;;;;;6.57;4.50;;;12.10;80.10;;;;;;5049360;28;20676;-74
2021/12/27 10:58:58;;;;;;;4.70;4.07;;;12.30;80.40;;;;;;5054819;28;20259;-74
2021/12/27 11:01:26;;;;;;;7.60;4.22;;;12.40;79.70;;;;;;5054893;28;20712;-73
2021/12/27 11:03:59;;;;;;;7.05;3.08;;;12.50;78.90;;;;;;5052861;28;20184;-74
2021/12/27 11:06:30;;;;;;;2.85;2.65;;;12.70;78.00;;;;;;5046202;28;20242;-74
2021/12/27 11:08:58;;;;;;;3.30;3.00;;;12.90;78.80;;;;;;5052856;28;20758;-74
2021/12/27 11:11:25;;;;;;;3.47;2.80;;;13.10;78.70;;;;;;5052397;28;20303;-74
2021/12/27 11:13:53;;;;;;;3.55;3.22;;;13.30;78.30;;;;;;5054692;28;21116;-73
2021/12/27 11:16:19;;;;;;;2.25;2.10;;;13.50;76.90;;;;;;5048352;28;20194;-74
2021/12/27 11:18:45;;;;;;;2.90;2.70;;;13.60;76.40;;;;;;5048067;28;20680;-74
2021/12/27 11:21:22;;;;;;;2.53;2.10;;;13.70;76.00;;;;;;5050541;28;20203;-74
2021/12/27 11:23:51;;;;;;;5.43;2.65;;;13.70;76.20;;;;;;5041931;28;20176;-74
2021/12/27 11:26:40;;;;;;;2.70;2.50;;;13.80;76.30;;;;;;5049167;28;20246;-74
2021/12/27 11:29:23;;;;;;;3.42;3.13;;;13.80;75.90;;;;;;5055657;28;20187;-74
2021/12/27 11:32:10;;;;;;;6.13;3.97;;;13.90;75.00;;;;;;5050521;28;20357;-74
2021/12/27 11:34:56;;;;;;;5.72;4.22;;;13.80;75.00;;;;;;5051826;28;20985;-74
2021/12/27 11:37:38;;;;;;;4.60;3.13;;;13.70;74.50;;;;;;5054290;28;20186;-74
2021/12/27 11:40:11;;;;;;;5.10;3.72;;;13.60;75.20;;;;;;5043860;28;20216;-72
2021/12/27 11:42:53;;;;;;;1.80;1.70;;;13.60;75.30;;;;;;5044937;28;20180;-72
2021/12/27 11:45:43;;;;;;;3.15;2.38;;;13.50;74.50;;;;;;5047576;28;20700;-71
2021/12/27 11:48:15;;;;;;;3.95;2.50;;;13.50;75.60;;;;;;5048271;28;20183;-70
2021/12/27 11:50:59;;;;;;;3.20;2.80;;;13.50;76.00;;;;;;5049497;28;20665;-70
2021/12/27 11:53:26;;;;;;;3.28;2.75;;;13.50;75.50;;;;;;5047798;28;20683;-72
2021/12/27 11:55:52;;;;;;;4.60;3.22;;;13.50;75.40;;;;;;5063954;28;20237;-74
2021/12/27 11:58:39;;;;;;;4.85;2.53;;;13.40;74.90;;;;;;5045524;28;20193;-74
2021/12/27 12:01:20;;;;;;;5.28;4.75;;;13.40;75.00;;;;;;5049620;28;20215;-74
2021/12/27 12:03:48;;;;;;;5.55;4.70;;;13.20;75.50;;;;;;5050516;28;21511;-74
2021/12/27 12:06:37;;;;;;;7.40;5.05;;;13.10;76.10;;;;;;5048945;28;20240;-74
2021/12/27 12:09:19;;;;;;;5.45;4.38;;;12.90;76.60;;;;;;5048554;28;20191;-73
2021/12/27 12:11:46;;;;;;;4.20;3.90;;;12.90;77.00;;;;;;5049969;28;20179;-73
2021/12/27 12:14:34;;;;;;;4.18;3.40;;;12.80;77.10;;;;;;5046440;28;20191;-72
2021/12/27 12:17:03;;;;;;;3.88;3.53;;;12.80;77.20;;;;;;5048963;28;20190;-72
2021/12/27 12:19:38;;;;;;;4.78;3.70;;;12.80;77.10;;;;;;5049240;28;20210;-72
2021/12/27 12:22:04;;;;;;;4.75;3.95;;;12.90;77.10;;;;;;5049127;28;20275;-74
2021/12/27 12:24:30;;;;;;;3.90;3.25;;;12.90;76.80;;;;;;5051954;28;20183;-75
2021/12/27 12:27:09;;;;;;;3.72;2.67;;;12.90;76.90;;;;;;5047687;28;20652;-74
2021/12/27 12:29:41;;;;;;;3.00;2.58;;;12.90;76.90;;;;;;5042337;28;20696;-75
2021/12/27 12:32:09;;;;;;;3.92;3.63;;;13.00;76.70;;;;;;5046528;28;20179;-73
2021/12/27 12:34:36;;;;;;;3.58;3.30;;;13.00;76.60;;;;;;5050914;28;20211;-74
2021/12/27 12:37:08;;;;;;;3.47;3.28;;;13.00;76.70;;;;;;5048555;28;20257;-75
2021/12/27 12:39:46;;;;;;;3.72;3.42;;;13.00;76.70;;;;;;5049109;28;20210;-74
2021/12/27 12:42:16;;;;;;;8.10;3.05;;;12.90;76.70;;;;;;5053561;28;20179;-74
2021/12/27 12:44:53;;;;;;;4.18;3.92;;;12.90;76.70;;;;;;5053538;28;20718;-75
2021/12/27 12:47:21;;;;;;;7.70;4.15;;;12.90;76.70;;;;;;5051877;28;20610;-75
2021/12/27 12:49:46;;;;;;;5.78;4.35;;;12.80;76.70;;;;;;5047826;28;20268;-75
2021/12/27 12:52:12;;;;;;;5.75;4.63;;;12.70;77.00;;;;;;5051067;28;20684;-74
2021/12/27 12:54:41;;;;;;;5.03;4.25;;;12.50;77.20;;;;;;5052909;28;20206;-74
2021/12/27 12:57:17;;;;;;;7.38;3.83;;;12.50;77.50;;;;;;5052726;28;20176;-75